createdAt,value
2023-01-13T00:02:20.839Z,1.88
2023-01-13T00:04:51.243Z,1.92
2023-01-13T00:07:21.749Z,1.67
2023-01-13T00:09:51.848Z,1.80
2023-01-13T00:12:22.355Z,1.70
2023-01-13T00:14:52.490Z,1.58
2023-01-13T00:17:24.654Z,1.67
2023-01-13T00:19:54.826Z,2.10
2023-01-13T00:22:25.379Z,1.90
2023-01-13T00:24:55.612Z,1.80
2023-01-13T00:27:26.216Z,2.13
2023-01-13T00:29:56.433Z,2.33
2023-01-13T00:32:29.214Z,2.30
2023-01-13T00:35:00.176Z,1.95
2023-01-13T00:37:30.712Z,1.90
2023-01-13T00:40:00.809Z,2.38
2023-01-13T00:42:48.495Z,2.10
2023-01-13T00:45:18.792Z,1.83
2023-01-13T00:47:50.794Z,1.63
2023-01-13T00:50:21.049Z,2.22
2023-01-13T00:52:51.603Z,1.77
2023-01-13T00:55:21.868Z,2.13
2023-01-13T00:57:52.409Z,1.75
2023-01-13T01:00:22.912Z,2.00
2023-01-13T01:02:54.879Z,2.22
2023-01-13T01:05:25.245Z,2.15
2023-01-13T01:07:55.805Z,2.20
2023-01-13T01:10:25.995Z,2.10
2023-01-13T01:12:56.467Z,2.20
2023-01-13T01:15:26.842Z,2.22
2023-01-13T01:17:59.081Z,1.58
2023-01-13T01:20:29.293Z,2.13
2023-01-13T01:22:59.860Z,1.95
2023-01-13T01:25:29.985Z,2.00
2023-01-13T01:28:01.353Z,1.80
2023-01-13T01:30:31.607Z,1.85
2023-01-13T01:33:05.429Z,2.10
2023-01-13T01:38:05.728Z,2.45
2023-01-13T01:40:36.204Z,2.20
2023-01-13T01:43:33.448Z,1.90
2023-01-13T01:46:04.084Z,2.33
2023-01-13T01:48:40.810Z,2.00
2023-01-13T01:51:14.652Z,1.95
2023-01-13T01:53:45.766Z,2.15
2023-01-13T01:56:17.199Z,2.10
2023-01-13T01:58:52.377Z,1.88
2023-01-13T02:01:22.939Z,1.67
2023-01-13T02:04:02.935Z,2.03
2023-01-13T02:06:33.257Z,2.00
2023-01-13T02:09:03.857Z,2.35
2023-01-13T02:11:53.234Z,2.08
2023-01-13T02:14:26.770Z,1.73
2023-01-13T02:17:20.683Z,2.00
2023-01-13T02:20:46.573Z,1.85
2023-01-13T02:24:11.992Z,2.30
2023-01-13T02:27:24.806Z,2.20
2023-01-13T02:30:26.994Z,2.05
2023-01-13T02:33:12.730Z,1.77
2023-01-13T02:36:01.511Z,1.75
2023-01-13T02:38:38.635Z,2.00
2023-01-13T02:41:34.395Z,1.60
2023-01-13T02:44:08.099Z,1.90
2023-01-13T02:46:50.920Z,1.75
2023-01-13T02:49:35.485Z,1.17
2023-01-13T02:52:12.949Z,1.98
2023-01-13T02:54:50.436Z,0.93
2023-01-13T02:57:23.042Z,2.17
2023-01-13T02:59:55.547Z,2.30
2023-01-13T03:02:28.041Z,1.85
2023-01-13T03:05:00.759Z,1.42
2023-01-13T03:08:02.689Z,1.88
2023-01-13T03:11:07.676Z,2.03
2023-01-13T03:14:09.714Z,1.55
2023-01-13T03:17:03.711Z,1.90
2023-01-13T03:19:44.027Z,1.85
2023-01-13T03:22:25.181Z,2.25
2023-01-13T03:25:02.301Z,2.38
2023-01-13T03:27:41.883Z,2.03
2023-01-13T03:30:18.543Z,1.67
2023-01-13T03:32:55.430Z,2.55
2023-01-13T03:35:31.954Z,2.55
2023-01-13T03:38:07.689Z,2.92
2023-01-13T03:40:44.298Z,2.70
2023-01-13T03:43:39.113Z,2.05
2023-01-13T03:46:16.204Z,2.35
2023-01-13T03:48:50.022Z,1.90
2023-01-13T03:53:59.785Z,2.00
2023-01-13T03:56:37.646Z,2.00
2023-01-13T03:59:15.540Z,1.60
2023-01-13T04:01:53.565Z,2.45
2023-01-13T04:04:30.337Z,1.92
2023-01-13T04:07:14.869Z,1.70
2023-01-13T04:09:52.142Z,1.67
2023-01-13T04:12:50.260Z,1.92
2023-01-13T04:15:27.546Z,2.05
2023-01-13T04:18:10.770Z,1.70
2023-01-13T04:23:14.179Z,1.58
2023-01-13T04:25:46.548Z,1.58
2023-01-13T04:28:18.022Z,1.60
2023-01-13T04:30:49.444Z,2.20
2023-01-13T04:33:20.945Z,1.77
2023-01-13T04:35:52.716Z,1.80
2023-01-13T04:38:24.493Z,1.67
2023-01-13T04:40:55.048Z,2.22
2023-01-13T04:43:25.218Z,1.92
2023-01-13T04:45:55.905Z,1.90
2023-01-13T04:48:26.035Z,1.60
2023-01-13T04:50:56.649Z,1.75
2023-01-13T04:53:28.238Z,1.65
2023-01-13T04:55:58.814Z,1.80
2023-01-13T04:58:28.959Z,1.50
2023-01-13T05:00:59.603Z,1.40
2023-01-13T05:03:29.825Z,1.65
2023-01-13T05:06:00.337Z,1.45
2023-01-13T05:08:31.976Z,1.65
2023-01-13T05:11:22.897Z,1.58
2023-01-13T05:14:10.054Z,1.50
2023-01-13T05:16:57.666Z,1.60
2023-01-13T05:19:28.104Z,2.00
2023-01-13T05:22:15.905Z,2.08
2023-01-13T05:25:05.313Z,1.60
2023-01-13T05:27:36.179Z,2.00
2023-01-13T05:30:07.962Z,1.95
2023-01-13T05:32:38.607Z,1.75
2023-01-13T05:35:09.640Z,2.00
2023-01-13T05:37:40.264Z,1.90
2023-01-13T05:40:32.490Z,1.80
2023-01-13T05:43:21.492Z,1.75
2023-01-13T05:45:54.457Z,1.45
2023-01-13T05:48:27.573Z,1.67
2023-01-13T05:50:57.861Z,1.55
2023-01-13T05:53:28.827Z,1.25
2023-01-13T05:56:00.958Z,1.65
2023-01-13T05:58:31.463Z,1.60
2023-01-13T06:01:03.418Z,1.40
2023-01-13T06:03:34.134Z,1.52
2023-01-13T06:06:04.668Z,1.77
2023-01-13T06:08:35.783Z,1.33
2023-01-13T06:11:08.375Z,1.40
2023-01-13T06:13:38.904Z,1.27
2023-01-13T06:16:10.828Z,1.48
2023-01-13T06:18:41.296Z,1.50
2023-01-13T06:21:11.410Z,1.60
2023-01-13T06:23:42.425Z,1.85
2023-01-13T06:26:20.963Z,1.67
2023-01-13T06:28:51.491Z,2.08
2023-01-13T06:31:22.373Z,1.67
2023-01-13T06:33:59.676Z,1.70
2023-01-13T06:36:36.653Z,1.48
2023-01-13T06:39:07.595Z,1.20
2023-01-13T06:41:57.253Z,1.50
2023-01-13T06:44:27.802Z,1.52
2023-01-13T06:46:58.066Z,1.67
2023-01-13T06:49:28.591Z,1.50
2023-01-13T06:51:58.738Z,1.20
2023-01-13T06:54:29.234Z,1.75
2023-01-13T06:57:00.776Z,1.80
2023-01-13T06:59:31.247Z,1.20
2023-01-13T07:02:01.662Z,1.70
2023-01-13T07:04:32.317Z,1.50
2023-01-13T07:07:02.447Z,1.00
2023-01-13T07:09:32.902Z,1.55
2023-01-13T07:12:04.523Z,1.30
2023-01-13T07:14:52.442Z,1.38
2023-01-13T07:17:25.489Z,1.50
2023-01-13T07:19:57.326Z,1.70
2023-01-13T07:22:27.452Z,1.38
2023-01-13T07:24:58.245Z,1.33
2023-01-13T07:27:29.804Z,1.30
2023-01-13T07:30:00.399Z,1.30
2023-01-13T07:32:32.557Z,1.35
2023-01-13T07:35:06.016Z,1.10
2023-01-13T07:37:38.349Z,1.15
2023-01-13T07:40:12.716Z,1.50
2023-01-13T07:42:57.978Z,1.15
2023-01-13T07:45:28.651Z,0.80
2023-01-13T07:47:58.811Z,1.10
2023-01-13T07:50:29.348Z,0.93
2023-01-13T07:53:00.184Z,1.10
2023-01-13T07:55:30.769Z,1.10
2023-01-13T07:58:02.325Z,1.52
2023-01-13T08:00:32.781Z,1.38
2023-01-13T08:03:03.378Z,1.20
2023-01-13T08:05:36.070Z,1.92
2023-01-13T08:08:06.745Z,1.27
2023-01-13T08:10:38.329Z,1.40
2023-01-13T08:13:19.999Z,1.40
2023-01-13T08:15:53.291Z,1.48
2023-01-13T08:18:24.132Z,1.30
2023-01-13T08:20:55.124Z,1.35
2023-01-13T08:23:25.409Z,1.33
2023-01-13T08:25:56.011Z,1.40
2023-01-13T08:28:27.644Z,1.73
2023-01-13T08:31:03.855Z,1.38
2023-01-13T08:33:34.857Z,2.03
2023-01-13T08:36:07.200Z,1.38
2023-01-13T08:38:38.579Z,1.00
2023-01-13T08:41:14.478Z,1.33
2023-01-13T08:43:46.071Z,1.10
2023-01-13T08:46:16.651Z,1.27
2023-01-13T08:48:46.875Z,1.55
2023-01-13T08:51:17.434Z,1.42
2023-01-13T08:53:47.589Z,0.90
2023-01-13T08:56:18.155Z,1.20
2023-01-13T08:58:49.756Z,1.60
2023-01-13T09:01:24.769Z,1.05
2023-01-13T09:03:55.689Z,1.17
2023-01-13T09:06:26.323Z,1.80
2023-01-13T09:08:56.511Z,1.42
2023-01-13T09:11:51.460Z,1.60
2023-01-13T09:14:25.840Z,1.67
2023-01-13T09:16:56.459Z,1.77
2023-01-13T09:19:27.301Z,1.73
2023-01-13T09:21:58.623Z,1.60
2023-01-13T09:24:28.905Z,1.70
2023-01-13T09:26:59.485Z,1.63
2023-01-13T09:29:31.379Z,1.65
2023-01-13T09:32:01.849Z,1.60
2023-01-13T09:34:49.069Z,1.45
2023-01-13T09:37:19.650Z,1.50
2023-01-13T09:39:49.879Z,1.42
2023-01-13T09:42:47.383Z,1.60
2023-01-13T09:45:24.593Z,1.90
2023-01-13T09:48:06.329Z,1.50
2023-01-13T09:50:52.877Z,1.92
2023-01-13T09:53:29.490Z,1.88
2023-01-13T09:55:59.787Z,1.70
2023-01-13T09:58:30.395Z,1.75
2023-01-13T10:01:17.690Z,1.70
2023-01-13T10:03:49.510Z,1.80
2023-01-13T10:06:25.231Z,2.08
2023-01-13T10:08:56.670Z,2.17
2023-01-13T10:11:50.578Z,2.00
2023-01-13T10:14:25.997Z,1.80
2023-01-13T10:17:12.488Z,1.98
2023-01-13T10:19:50.051Z,2.10
2023-01-13T10:22:34.453Z,1.75
2023-01-13T10:25:24.567Z,2.45
2023-01-13T10:27:57.226Z,1.98
2023-01-13T10:30:36.072Z,2.38
2023-01-13T10:33:14.946Z,2.00
2023-01-13T10:35:55.556Z,1.75
2023-01-13T10:38:29.767Z,1.90
2023-01-13T10:41:02.758Z,1.92
2023-01-13T10:43:34.086Z,1.60
2023-01-13T10:46:08.425Z,1.75
2023-01-13T10:48:43.179Z,2.10
2023-01-13T10:51:23.337Z,2.00
2023-01-13T10:54:01.656Z,1.73
2023-01-13T10:56:34.865Z,1.88
2023-01-13T10:59:23.567Z,2.17
2023-01-13T11:02:12.997Z,1.90
2023-01-13T11:05:19.856Z,2.10
2023-01-13T11:07:52.688Z,2.08
2023-01-13T11:10:27.400Z,1.52
2023-01-13T11:13:08.638Z,1.40
2023-01-13T11:15:48.413Z,1.10
2023-01-13T11:18:29.280Z,2.10
2023-01-13T11:21:01.724Z,1.75
2023-01-13T11:23:38.739Z,1.10
2023-01-13T11:26:17.662Z,1.65
2023-01-13T11:28:58.700Z,2.40
2023-01-13T11:31:34.515Z,1.75
2023-01-13T11:34:15.271Z,1.88
2023-01-13T11:36:51.957Z,2.10
2023-01-13T11:39:31.585Z,2.00
2023-01-13T11:42:28.800Z,2.20
2023-01-13T11:45:08.808Z,1.83
2023-01-13T11:47:40.100Z,1.50
2023-01-13T11:50:19.939Z,1.80
2023-01-13T11:53:11.444Z,1.70
2023-01-13T11:55:56.167Z,1.40
2023-01-13T11:58:53.623Z,1.48
2023-01-13T12:01:44.430Z,1.45
2023-01-13T12:04:40.115Z,1.58
2023-01-13T12:07:23.108Z,1.58
2023-01-13T12:10:13.088Z,2.00
2023-01-13T12:12:52.876Z,2.15
2023-01-13T12:15:53.799Z,1.77
2023-01-13T12:18:57.232Z,1.50
2023-01-13T12:21:33.000Z,1.63
2023-01-13T12:24:19.031Z,1.77
2023-01-13T12:26:56.554Z,1.83
2023-01-13T12:29:34.227Z,1.70
2023-01-13T12:32:09.821Z,1.50
2023-01-13T12:35:05.214Z,1.98
2023-01-13T12:37:42.996Z,1.90
2023-01-13T12:40:29.916Z,2.05
2023-01-13T12:43:38.846Z,2.05
2023-01-13T12:46:53.159Z,2.35
2023-01-13T12:49:29.524Z,1.70
2023-01-13T12:52:21.151Z,1.45
2023-01-13T12:55:20.587Z,1.77
2023-01-13T12:58:27.491Z,2.30
2023-01-13T13:01:13.322Z,2.00
2023-01-13T13:04:04.533Z,1.95
2023-01-13T13:06:38.380Z,1.80
2023-01-13T13:09:22.285Z,1.95
2023-01-13T13:12:10.083Z,1.67
2023-01-13T13:15:07.283Z,1.95
2023-01-13T13:17:43.190Z,1.77
2023-01-13T13:21:10.902Z,2.10
2023-01-13T13:24:06.470Z,1.90
2023-01-13T13:26:45.972Z,1.85
2023-01-13T13:29:48.074Z,2.25
2023-01-13T13:33:03.599Z,2.03
2023-01-13T13:36:04.240Z,1.35
2023-01-13T13:39:27.047Z,1.50
2023-01-13T13:42:23.576Z,1.90
2023-01-13T13:45:12.407Z,1.40
2023-01-13T13:47:44.060Z,1.80
2023-01-13T13:50:18.358Z,2.42
2023-01-13T13:52:55.295Z,2.33
2023-01-13T13:55:29.010Z,2.85
2023-01-13T14:00:35.235Z,1.75
2023-01-13T14:03:22.067Z,2.58
2023-01-13T14:05:59.553Z,2.55
2023-01-13T14:08:32.305Z,1.10
2023-01-13T14:11:03.309Z,1.15
2023-01-13T14:13:33.930Z,1.52
2023-01-13T14:16:07.425Z,0.50
2023-01-13T14:18:47.485Z,0.95
2023-01-13T14:21:23.676Z,1.02
2023-01-13T14:23:57.068Z,1.05
2023-01-13T14:26:29.856Z,0.80
2023-01-13T14:29:03.334Z,0.83
2023-01-13T14:31:35.584Z,1.55
2023-01-13T14:34:31.942Z,1.00
2023-01-13T14:36:59.105Z,1.10
2023-01-13T14:39:38.959Z,0.43
2023-01-13T14:42:15.239Z,0.65
2023-01-13T14:44:48.016Z,1.13
2023-01-13T14:47:27.574Z,1.10
2023-01-13T14:50:07.128Z,1.50
2023-01-13T14:52:48.049Z,1.63
2023-01-13T14:55:30.396Z,1.88
2023-01-13T14:58:28.493Z,1.83
2023-01-13T15:01:31.497Z,1.95
2023-01-13T15:04:17.498Z,1.48
2023-01-13T15:06:55.492Z,1.73
2023-01-13T15:09:29.466Z,1.85
2023-01-13T15:12:18.021Z,1.90
2023-01-13T15:14:52.741Z,2.15
2023-01-13T15:17:22.924Z,2.40
2023-01-13T15:19:55.421Z,2.80
2023-01-13T15:22:28.204Z,1.52
2023-01-13T15:24:59.220Z,1.52
2023-01-13T15:27:29.596Z,2.05
2023-01-13T15:30:00.889Z,3.13
2023-01-13T15:32:31.641Z,3.60
2023-01-13T15:35:02.388Z,4.57
2023-01-13T15:37:34.055Z,3.30
2023-01-13T15:40:05.223Z,3.17
2023-01-13T15:42:52.696Z,2.55
2023-01-13T15:45:40.624Z,2.65
2023-01-13T15:48:10.867Z,1.73
2023-01-13T15:50:41.801Z,1.50
2023-01-13T15:53:16.155Z,1.70
2023-01-13T15:55:50.639Z,1.40
2023-01-13T15:58:27.572Z,2.13
2023-01-13T16:00:58.910Z,1.98
2023-01-13T16:03:29.143Z,1.90
2023-01-13T16:05:59.681Z,2.35
2023-01-13T16:08:34.283Z,2.30
2023-01-13T16:11:04.915Z,2.35
2023-01-13T16:13:35.064Z,2.20
2023-01-13T16:16:11.573Z,1.80
2023-01-13T16:18:41.751Z,1.80
2023-01-13T16:21:15.065Z,2.28
2023-01-13T16:23:46.841Z,2.20
2023-01-13T16:26:24.712Z,2.40
2023-01-13T16:28:58.799Z,2.30
2023-01-13T16:31:32.404Z,1.98
2023-01-13T16:34:04.642Z,1.38
2023-01-13T16:36:38.214Z,1.25
2023-01-13T16:39:23.742Z,1.67
2023-01-13T16:41:56.734Z,1.52
2023-01-13T16:44:27.746Z,1.55
2023-01-13T16:46:58.542Z,1.63
2023-01-13T16:49:28.904Z,1.55
2023-01-13T16:52:01.160Z,1.80
2023-01-13T16:54:33.897Z,2.28
2023-01-13T16:57:06.310Z,2.38
2023-01-13T16:59:37.331Z,2.60
2023-01-13T17:02:16.039Z,1.58
2023-01-13T17:04:46.363Z,1.48
2023-01-13T17:07:19.354Z,1.60
2023-01-13T17:09:50.966Z,2.00
2023-01-13T17:12:22.577Z,2.13
2023-01-13T17:14:52.676Z,1.52
2023-01-13T17:17:27.440Z,1.42
2023-01-13T17:19:57.701Z,2.05
2023-01-13T17:22:30.930Z,2.58
2023-01-13T17:25:02.596Z,2.65
2023-01-13T17:27:33.931Z,2.08
2023-01-13T17:30:04.567Z,2.72
2023-01-13T17:32:36.022Z,3.03
2023-01-13T17:35:08.062Z,3.63
2023-01-13T17:37:39.675Z,3.03
2023-01-13T17:40:14.145Z,3.70
2023-01-13T17:42:46.467Z,4.10
2023-01-13T17:45:17.957Z,4.65
2023-01-13T17:47:48.810Z,5.75
2023-01-13T17:50:19.252Z,6.28
2023-01-13T17:52:50.157Z,8.55
2023-01-13T17:55:21.870Z,10.40
2023-01-13T17:57:52.553Z,11.35
2023-01-13T18:00:23.672Z,11.13
2023-01-13T18:02:54.624Z,11.57
2023-01-13T18:05:24.924Z,11.13
2023-01-13T18:07:55.467Z,10.98
2023-01-13T18:10:27.338Z,10.77
2023-01-13T18:12:57.935Z,11.52
2023-01-13T18:15:28.199Z,12.07
2023-01-13T18:17:59.055Z,10.40
2023-01-13T18:20:49.111Z,10.00
2023-01-13T18:23:39.020Z,10.45
2023-01-13T18:26:36.324Z,11.00
2023-01-13T18:29:08.869Z,13.25
2023-01-13T18:31:57.679Z,21.15
2023-01-13T18:34:28.561Z,18.40
2023-01-13T18:37:00.303Z,14.85
2023-01-13T18:39:32.017Z,15.73
2023-01-13T18:42:24.457Z,13.02
2023-01-13T18:44:57.153Z,11.88
2023-01-13T18:47:30.524Z,12.55
2023-01-13T18:50:01.989Z,11.38
2023-01-13T18:52:32.917Z,11.85
2023-01-13T18:55:04.359Z,11.88
2023-01-13T18:57:39.331Z,10.63
2023-01-13T19:00:14.072Z,10.35
2023-01-13T19:02:47.470Z,10.23
2023-01-13T19:05:19.291Z,10.25
2023-01-13T19:07:52.647Z,9.23
2023-01-13T19:10:24.140Z,9.00
2023-01-13T19:12:56.205Z,9.23
2023-01-13T19:15:27.018Z,9.60
2023-01-13T19:17:57.351Z,9.30
2023-01-13T19:20:28.349Z,10.38
2023-01-13T19:22:58.920Z,9.93
2023-01-13T19:25:29.643Z,9.73
2023-01-13T19:28:01.321Z,9.55
2023-01-13T19:30:32.268Z,9.55
2023-01-13T19:33:02.657Z,10.65
2023-01-13T19:35:33.575Z,10.55
2023-01-13T19:38:03.855Z,11.82
2023-01-13T19:40:34.763Z,12.07
2023-01-13T19:43:24.016Z,11.55
2023-01-13T19:45:55.205Z,9.85
2023-01-13T19:48:26.324Z,9.43
2023-01-13T19:50:57.400Z,9.77
2023-01-13T19:53:28.333Z,10.20
2023-01-13T19:55:59.714Z,11.45
2023-01-13T19:58:31.696Z,12.68
2023-01-13T20:01:10.089Z,13.70
2023-01-13T20:03:40.645Z,13.15
2023-01-13T20:06:11.620Z,15.35
2023-01-13T20:08:46.148Z,17.05
2023-01-13T20:11:22.707Z,19.40
2023-01-13T20:13:54.590Z,18.23
2023-01-13T20:16:25.965Z,17.05
2023-01-13T20:18:57.178Z,17.98
2023-01-13T20:21:28.334Z,14.70
2023-01-13T20:23:58.758Z,13.35
2023-01-13T20:26:29.567Z,12.98
2023-01-13T20:29:01.616Z,12.20
2023-01-13T20:31:32.606Z,12.70
2023-01-13T20:34:03.053Z,11.48
2023-01-13T20:36:37.808Z,11.57
2023-01-13T20:39:09.675Z,12.13
2023-01-13T20:41:58.476Z,11.15
2023-01-13T20:44:31.221Z,12.38
2023-01-13T20:47:03.051Z,13.05
2023-01-13T20:49:34.527Z,13.23
2023-01-13T20:52:09.761Z,13.18
2023-01-13T20:54:42.267Z,13.63
2023-01-13T20:57:13.489Z,13.10
2023-01-13T20:59:45.838Z,11.00
2023-01-13T21:02:18.313Z,11.88
2023-01-13T21:04:49.113Z,6.93
2023-01-13T21:07:21.051Z,6.85
2023-01-13T21:09:51.777Z,7.28
2023-01-13T21:12:39.676Z,7.05
2023-01-13T21:15:21.773Z,7.65
2023-01-13T21:18:11.673Z,6.32
2023-01-13T21:20:42.310Z,6.63
2023-01-13T21:23:13.477Z,7.60
2023-01-13T21:25:44.497Z,6.90
2023-01-13T21:28:16.919Z,6.10
2023-01-13T21:30:50.157Z,6.53
2023-01-13T21:33:22.091Z,5.50
2023-01-13T21:35:52.747Z,6.35
2023-01-13T21:38:23.807Z,7.53
2023-01-13T21:41:02.703Z,6.75
2023-01-13T21:43:51.624Z,7.28
2023-01-13T21:46:42.319Z,7.75
2023-01-13T21:49:13.472Z,8.50
2023-01-13T21:51:44.965Z,9.02
2023-01-13T21:54:15.654Z,7.93
2023-01-13T21:56:46.033Z,6.78
2023-01-13T21:59:17.262Z,7.70
2023-01-13T22:02:23.401Z,8.30
2023-01-13T22:04:40.653Z,8.18
2023-01-13T22:07:11.208Z,7.68
2023-01-13T22:09:42.421Z,7.03
2023-01-13T22:12:14.084Z,7.18
2023-01-13T22:14:45.524Z,6.22
2023-01-13T22:17:17.984Z,5.55
2023-01-13T22:19:49.704Z,5.78
2023-01-13T22:22:21.279Z,5.75
2023-01-13T22:24:54.104Z,5.70
2023-01-13T22:27:29.121Z,7.65
2023-01-13T22:30:00.371Z,6.70
2023-01-13T22:32:32.223Z,5.60
2023-01-13T22:35:03.367Z,5.63
2023-01-13T22:37:34.123Z,5.28
2023-01-13T22:40:08.764Z,5.75
2023-01-13T22:42:40.383Z,6.25
2023-01-13T22:45:14.758Z,5.65
2023-01-13T22:47:46.453Z,5.88
2023-01-13T22:50:20.911Z,6.30
2023-01-13T22:52:51.295Z,5.32
2023-01-13T22:55:22.062Z,5.03
2023-01-13T22:57:52.556Z,5.40
2023-01-13T23:00:25.096Z,5.20
2023-01-13T23:02:57.109Z,5.43
2023-01-13T23:05:29.374Z,5.47
2023-01-13T23:07:59.916Z,6.72
2023-01-13T23:10:30.517Z,7.22
2023-01-13T23:13:00.861Z,7.15
2023-01-13T23:15:31.839Z,6.68
2023-01-13T23:18:03.854Z,6.40
2023-01-13T23:20:35.672Z,6.22
2023-01-13T23:23:06.089Z,5.75
2023-01-13T23:25:36.776Z,6.50
2023-01-13T23:28:09.010Z,6.13
2023-01-13T23:30:42.570Z,5.47
2023-01-13T23:33:14.456Z,4.38
2023-01-13T23:35:45.877Z,4.25
2023-01-13T23:38:15.967Z,4.47
2023-01-13T23:40:47.571Z,4.40
2023-01-13T23:43:17.775Z,4.78
2023-01-13T23:45:48.581Z,4.75
2023-01-13T23:48:20.481Z,4.00
2023-01-13T23:50:59.843Z,4.63
2023-01-13T23:53:33.657Z,4.85
2023-01-13T23:56:07.714Z,4.80
2023-01-13T23:58:37.939Z,4.15
